Time;durP1;ratioP1;P1;durP2;ratioP2;P2;SDS_P1;SDS_P2;PMS_P1;PMS_P2;Temp;Humidity;BMP_temperature;BMP_pressure;BME280_temperature;BME280_humidity;BME280_pressure;Samples;Min_cycle;Max_cycle;Signal;HPM_P1;HPM_P2
2021/09/11 00:02:13;;;;;;;14.40;11.38;;;19.70;99.90;;;;;;5030666;28;20766;-68
2021/09/11 00:04:46;;;;;;;11.45;10.20;;;19.70;99.90;;;;;;5030189;28;20407;-68
2021/09/11 00:07:14;;;;;;;13.73;11.02;;;19.70;99.90;;;;;;5030329;28;20141;-68
2021/09/11 00:09:42;;;;;;;12.38;10.60;;;19.70;99.90;;;;;;5024532;28;20072;-68
2021/09/11 00:12:10;;;;;;;12.23;10.88;;;19.60;99.90;;;;;;5035096;28;20037;-68
2021/09/11 00:14:37;;;;;;;12.93;10.95;;;19.60;99.90;;;;;;5033079;28;20128;-68
2021/09/11 00:17:05;;;;;;;14.05;10.75;;;19.60;99.90;;;;;;5032565;28;20480;-68
2021/09/11 00:19:32;;;;;;;13.15;10.63;;;19.60;99.90;;;;;;5027098;28;20045;-68
2021/09/11 00:22:00;;;;;;;13.05;11.15;;;19.60;99.90;;;;;;5032401;28;20128;-68
2021/09/11 00:24:28;;;;;;;14.00;10.98;;;19.60;99.90;;;;;;5031785;28;20061;-68
2021/09/11 00:26:55;;;;;;;11.80;10.43;;;19.50;99.90;;;;;;5012523;28;20049;-68
2021/09/11 00:29:23;;;;;;;11.45;9.52;;;19.50;99.90;;;;;;5013955;28;20111;-68
2021/09/11 00:31:51;;;;;;;13.82;9.77;;;19.60;99.90;;;;;;5029812;28;20041;-68
2021/09/11 00:34:18;;;;;;;15.57;11.32;;;19.60;99.90;;;;;;5032199;28;20041;-67
2021/09/11 00:36:48;;;;;;;12.07;10.23;;;19.60;99.90;;;;;;5033248;28;20053;-67
2021/09/11 00:39:16;;;;;;;13.57;10.95;;;19.60;99.90;;;;;;5030823;28;20091;-67
2021/09/11 00:41:43;;;;;;;11.75;9.25;;;19.50;99.90;;;;;;5031764;28;20048;-67
2021/09/11 00:44:11;;;;;;;13.48;10.57;;;19.50;99.90;;;;;;5030206;28;20511;-68
2021/09/11 00:46:39;;;;;;;11.43;10.02;;;19.60;99.90;;;;;;5030875;28;20052;-68
2021/09/11 00:49:06;;;;;;;11.13;9.27;;;19.60;99.90;;;;;;5030944;28;20053;-68
2021/09/11 00:51:33;;;;;;;13.23;9.88;;;19.60;99.90;;;;;;5019341;28;20133;-68
2021/09/11 00:54:02;;;;;;;11.38;10.07;;;19.60;99.90;;;;;;5030506;28;20065;-68
2021/09/11 00:56:32;;;;;;;12.80;9.43;;;19.60;99.90;;;;;;5032663;28;20128;-68
2021/09/11 00:59:00;;;;;;;12.00;9.55;;;19.60;99.90;;;;;;5031815;28;20492;-68
2021/09/11 01:01:29;;;;;;;12.73;10.35;;;19.60;99.90;;;;;;5029742;28;20049;-68
2021/09/11 01:03:56;;;;;;;13.00;9.65;;;19.70;99.90;;;;;;5030423;28;20041;-68
2021/09/11 01:06:25;;;;;;;13.23;10.05;;;19.60;99.90;;;;;;5013030;28;20495;-68
2021/09/11 01:08:53;;;;;;;12.27;9.60;;;19.70;99.90;;;;;;5030131;28;20384;-68
2021/09/11 01:11:21;;;;;;;12.90;10.40;;;19.60;99.90;;;;;;5041298;28;20052;-68
2021/09/11 01:13:48;;;;;;;12.05;10.35;;;19.60;99.90;;;;;;5022410;28;20549;-68
2021/09/11 01:16:15;;;;;;;11.15;9.68;;;19.60;99.90;;;;;;5024068;28;20411;-68
2021/09/11 01:18:44;;;;;;;13.10;9.70;;;19.70;99.90;;;;;;5028195;28;20128;-68
2021/09/11 01:21:12;;;;;;;12.32;10.32;;;19.60;99.90;;;;;;5016075;28;20132;-68
2021/09/11 01:23:42;;;;;;;11.90;10.20;;;19.60;99.90;;;;;;5021655;28;20057;-68
2021/09/11 01:26:13;;;;;;;11.43;9.55;;;19.60;99.90;;;;;;5027088;28;20488;-68
2021/09/11 01:28:41;;;;;;;13.75;10.57;;;19.60;99.90;;;;;;5026917;28;20064;-68
2021/09/11 01:31:08;;;;;;;11.48;10.23;;;19.60;99.90;;;;;;5028046;28;20038;-68
2021/09/11 01:33:36;;;;;;;13.30;10.38;;;19.60;99.90;;;;;;5030119;28;20037;-68
2021/09/11 01:36:04;;;;;;;12.05;10.60;;;19.50;99.90;;;;;;5030453;28;20041;-68
2021/09/11 01:38:31;;;;;;;12.25;10.18;;;19.50;99.90;;;;;;5029383;28;20042;-68
2021/09/11 01:40:58;;;;;;;11.98;10.18;;;19.50;99.90;;;;;;5029611;28;20069;-68
2021/09/11 01:43:31;;;;;;;12.50;10.57;;;19.50;99.90;;;;;;5028067;28;20063;-68
2021/09/11 01:45:59;;;;;;;11.27;9.70;;;19.40;99.90;;;;;;5030933;28;20129;-68
2021/09/11 01:48:27;;;;;;;12.60;9.55;;;19.40;99.90;;;;;;5027617;28;20069;-68
2021/09/11 01:50:54;;;;;;;19.65;10.98;;;19.40;99.90;;;;;;5021691;28;20387;-68
2021/09/11 01:53:22;;;;;;;13.48;10.10;;;19.40;99.90;;;;;;5022093;28;20038;-68
2021/09/11 01:55:50;;;;;;;12.57;10.55;;;19.40;99.90;;;;;;5027022;28;20037;-68
2021/09/11 01:58:17;;;;;;;14.10;11.20;;;19.40;99.90;;;;;;5008336;28;20088;-68
2021/09/11 02:00:45;;;;;;;12.00;10.05;;;19.40;99.90;;;;;;5029143;28;20060;-68
2021/09/11 02:03:12;;;;;;;12.85;10.38;;;19.30;99.90;;;;;;5027652;28;20500;-68
2021/09/11 02:05:40;;;;;;;13.07;11.23;;;19.30;99.90;;;;;;5029689;28;20407;-68
2021/09/11 02:08:08;;;;;;;13.95;11.35;;;19.30;99.90;;;;;;5028695;28;20041;-68
2021/09/11 02:10:35;;;;;;;11.77;9.65;;;19.30;99.90;;;;;;5032951;28;20506;-68
2021/09/11 02:13:03;;;;;;;12.90;10.85;;;19.30;99.90;;;;;;5022977;28;20036;-68
2021/09/11 02:15:31;;;;;;;14.77;10.13;;;19.30;99.90;;;;;;5030498;28;20048;-68
2021/09/11 02:17:59;;;;;;;11.60;9.88;;;19.20;99.90;;;;;;5027453;28;20514;-68
2021/09/11 02:20:26;;;;;;;12.50;10.95;;;19.20;99.90;;;;;;5027510;28;20136;-68
2021/09/11 02:22:53;;;;;;;11.55;10.35;;;19.20;99.90;;;;;;5027413;28;20603;-68
2021/09/11 02:25:21;;;;;;;13.43;10.88;;;19.10;99.90;;;;;;5029307;28;20045;-68
2021/09/11 02:27:48;;;;;;;13.02;10.73;;;19.10;99.90;;;;;;5025346;28;20049;-68
2021/09/11 02:30:15;;;;;;;14.85;12.35;;;19.10;99.90;;;;;;5027701;28;20084;-68
2021/09/11 02:32:43;;;;;;;14.02;11.07;;;19.10;99.90;;;;;;5003701;28;20496;-67
2021/09/11 02:35:10;;;;;;;13.43;11.02;;;19.10;99.90;;;;;;5029116;28;20065;-67
2021/09/11 02:37:37;;;;;;;11.65;10.07;;;19.10;99.90;;;;;;5028549;28;20043;-67
2021/09/11 02:40:05;;;;;;;14.32;11.60;;;19.10;99.90;;;;;;5024878;28;20045;-67
2021/09/11 02:42:33;;;;;;;12.63;11.18;;;19.20;99.90;;;;;;5010965;28;20045;-67
2021/09/11 02:45:00;;;;;;;13.75;11.52;;;19.10;99.90;;;;;;5027408;28;20059;-67
2021/09/11 02:47:27;;;;;;;17.40;12.52;;;19.10;99.90;;;;;;5028877;28;20403;-68
2021/09/11 02:49:55;;;;;;;14.27;12.30;;;19.10;99.90;;;;;;5026550;28;20080;-68
2021/09/11 02:52:22;;;;;;;12.00;10.57;;;19.10;99.90;;;;;;5024331;28;20053;-68
2021/09/11 02:54:50;;;;;;;13.98;11.63;;;19.10;99.90;;;;;;5028187;28;20049;-68
2021/09/11 02:57:17;;;;;;;16.02;11.65;;;19.10;99.90;;;;;;5028013;28;20075;-68
2021/09/11 02:59:44;;;;;;;13.35;11.75;;;19.00;99.90;;;;;;5028496;28;20189;-68
2021/09/11 03:02:11;;;;;;;15.52;12.50;;;19.00;99.90;;;;;;5026053;28;20068;-68
2021/09/11 03:04:39;;;;;;;14.07;12.25;;;19.00;99.90;;;;;;5029063;28;20045;-68
2021/09/11 03:07:06;;;;;;;13.35;11.02;;;19.00;99.90;;;;;;5027245;28;20133;-68
2021/09/11 03:09:34;;;;;;;12.57;11.10;;;19.10;99.90;;;;;;5026323;28;20400;-68
2021/09/11 03:12:01;;;;;;;13.35;11.32;;;19.00;99.90;;;;;;5028792;28;20049;-68
2021/09/11 03:14:29;;;;;;;12.75;10.77;;;19.00;99.90;;;;;;5026010;28;20045;-72
2021/09/11 03:16:56;;;;;;;12.88;10.38;;;19.00;99.90;;;;;;5027932;28;20063;-68
2021/09/11 03:19:24;;;;;;;15.07;11.95;;;19.00;99.90;;;;;;5027572;28;20463;-68
2021/09/11 03:21:51;;;;;;;13.45;11.43;;;19.00;99.90;;;;;;5028537;28;20060;-68
2021/09/11 03:24:19;;;;;;;14.93;12.23;;;19.00;99.90;;;;;;5028475;28;20124;-68
2021/09/11 03:26:46;;;;;;;14.27;11.50;;;19.00;99.90;;;;;;5026015;28;20057;-68
2021/09/11 03:29:13;;;;;;;13.48;11.77;;;19.00;99.90;;;;;;5027005;28;20056;-69
2021/09/11 03:31:40;;;;;;;13.88;11.95;;;19.00;99.90;;;;;;5028431;28;20065;-68
2021/09/11 03:34:08;;;;;;;15.75;12.40;;;19.00;99.90;;;;;;5001157;28;20475;-68
2021/09/11 03:36:36;;;;;;;11.82;10.43;;;19.00;99.90;;;;;;5026691;28;20041;-68
2021/09/11 03:39:04;;;;;;;15.63;12.18;;;18.90;99.90;;;;;;5015964;28;20054;-68
2021/09/11 03:41:31;;;;;;;13.18;10.85;;;18.90;99.90;;;;;;5040353;28;20042;-68
2021/09/11 03:43:58;;;;;;;12.70;11.40;;;18.90;99.90;;;;;;5010139;28;20133;-68
2021/09/11 03:46:26;;;;;;;14.20;12.35;;;18.90;99.90;;;;;;5023569;28;20053;-67
2021/09/11 03:48:53;;;;;;;14.25;12.40;;;18.90;99.90;;;;;;5020413;28;20049;-69
2021/09/11 03:51:20;;;;;;;13.93;11.70;;;18.90;99.90;;;;;;5020190;28;20042;-68
2021/09/11 03:53:48;;;;;;;12.32;11.02;;;18.90;99.90;;;;;;5027310;28;20043;-68
2021/09/11 03:56:15;;;;;;;15.60;11.23;;;18.80;99.90;;;;;;5026142;28;20499;-68
2021/09/11 03:58:42;;;;;;;13.50;11.70;;;18.80;99.90;;;;;;5022218;28;20065;-68
2021/09/11 04:01:09;;;;;;;14.45;10.00;;;18.80;99.90;;;;;;5026789;28;20034;-68
2021/09/11 04:03:37;;;;;;;15.18;11.50;;;18.80;99.90;;;;;;5028091;28;20405;-68
2021/09/11 04:06:04;;;;;;;13.82;10.93;;;18.80;99.90;;;;;;5014472;28;20065;-68
2021/09/11 04:08:32;;;;;;;13.95;11.70;;;18.80;99.90;;;;;;5027674;28;20095;-68
2021/09/11 04:10:59;;;;;;;14.50;11.38;;;18.80;99.90;;;;;;5034472;28;20412;-68
2021/09/11 04:13:27;;;;;;;13.90;11.18;;;18.90;99.90;;;;;;5010038;28;20052;-68
2021/09/11 04:15:54;;;;;;;12.85;10.07;;;18.90;99.90;;;;;;5020728;28;20040;-68
2021/09/11 04:18:22;;;;;;;14.85;11.63;;;18.90;99.90;;;;;;5029359;28;20381;-68
2021/09/11 04:20:49;;;;;;;12.43;10.73;;;19.00;99.90;;;;;;5028229;28;20037;-68
2021/09/11 04:23:17;;;;;;;12.40;10.48;;;19.00;99.90;;;;;;5028911;28;20045;-68
2021/09/11 04:25:45;;;;;;;14.25;11.73;;;19.00;99.90;;;;;;5030766;28;20065;-68
2021/09/11 04:28:12;;;;;;;16.88;12.05;;;19.00;99.90;;;;;;5030099;28;20055;-68
2021/09/11 04:30:39;;;;;;;13.80;11.00;;;19.00;99.90;;;;;;5031716;28;20440;-68
2021/09/11 04:33:07;;;;;;;12.50;11.20;;;19.00;99.90;;;;;;5029328;28;20079;-68
2021/09/11 04:35:34;;;;;;;16.17;12.02;;;19.00;99.90;;;;;;5031604;28;20066;-68
2021/09/11 04:38:02;;;;;;;15.43;11.93;;;19.00;99.90;;;;;;5030215;28;20038;-67
2021/09/11 04:40:29;;;;;;;15.20;12.38;;;19.00;99.90;;;;;;5031969;28;20053;-68
2021/09/11 04:42:57;;;;;;;13.50;12.00;;;19.00;99.90;;;;;;5030053;28;20045;-68
2021/09/11 04:45:24;;;;;;;15.75;12.25;;;19.00;99.90;;;;;;5031276;28;20132;-68
2021/09/11 04:47:52;;;;;;;14.68;12.63;;;19.00;99.90;;;;;;5027873;28;20839;-68
2021/09/11 04:50:19;;;;;;;15.05;12.35;;;19.00;99.90;;;;;;5031359;28;20037;-68
2021/09/11 04:52:46;;;;;;;14.98;12.27;;;19.00;99.90;;;;;;5029876;28;20063;-68
2021/09/11 04:55:14;;;;;;;16.80;13.00;;;19.00;99.90;;;;;;5030333;28;20052;-67
2021/09/11 04:57:42;;;;;;;14.27;12.07;;;19.00;99.90;;;;;;5028934;28;20030;-68
2021/09/11 05:00:10;;;;;;;15.00;12.40;;;19.00;99.90;;;;;;5026586;28;20060;-69
2021/09/11 05:02:37;;;;;;;13.38;11.13;;;19.00;99.90;;;;;;5030162;28;20465;-68
2021/09/11 05:05:05;;;;;;;15.73;13.13;;;19.00;99.90;;;;;;5030062;28;20057;-67
2021/09/11 05:07:34;;;;;;;14.38;12.57;;;19.00;99.90;;;;;;5023051;28;20061;-67
2021/09/11 05:10:01;;;;;;;15.55;13.63;;;19.00;99.90;;;;;;5034574;28;20049;-67
2021/09/11 05:12:28;;;;;;;14.63;12.77;;;19.00;99.90;;;;;;5029797;28;20046;-68
2021/09/11 05:14:56;;;;;;;16.60;13.57;;;19.00;99.90;;;;;;5029844;28;20081;-67
2021/09/11 05:17:23;;;;;;;14.77;12.88;;;19.00;99.90;;;;;;5030378;28;20049;-68
2021/09/11 05:19:50;;;;;;;14.48;12.90;;;19.00;99.90;;;;;;5007714;28;20042;-67
2021/09/11 05:22:18;;;;;;;17.33;14.55;;;19.00;99.90;;;;;;5027440;28;20094;-67
2021/09/11 05:24:45;;;;;;;16.45;13.75;;;19.00;99.90;;;;;;5030625;28;20159;-67
2021/09/11 05:27:13;;;;;;;16.77;13.55;;;18.90;99.90;;;;;;5020052;28;20046;-68
2021/09/11 05:29:40;;;;;;;16.88;13.82;;;18.90;99.90;;;;;;5024188;28;20657;-67
2021/09/11 05:32:07;;;;;;;19.40;15.43;;;18.90;99.90;;;;;;5019728;28;20475;-67
2021/09/11 05:34:34;;;;;;;16.33;13.48;;;18.90;99.90;;;;;;5029555;28;20057;-67
2021/09/11 05:37:05;;;;;;;16.23;13.65;;;18.90;99.90;;;;;;5035087;28;20064;-68
2021/09/11 05:39:32;;;;;;;16.55;14.45;;;19.00;99.90;;;;;;5029473;28;20033;-67
2021/09/11 05:42:00;;;;;;;18.50;13.20;;;19.00;99.90;;;;;;5030492;28;20539;-67
2021/09/11 05:44:27;;;;;;;16.15;13.25;;;19.00;99.90;;;;;;5026709;28;20057;-68
2021/09/11 05:46:54;;;;;;;20.23;15.85;;;19.10;99.90;;;;;;5028344;28;20124;-67
2021/09/11 05:49:21;;;;;;;18.35;15.55;;;19.10;99.90;;;;;;5029237;28;20666;-67
2021/09/11 05:51:49;;;;;;;19.55;15.27;;;19.10;99.90;;;;;;5029341;28;20518;-67
2021/09/11 05:54:16;;;;;;;21.13;15.50;;;19.10;99.90;;;;;;5027322;28;20060;-67
2021/09/11 05:56:43;;;;;;;18.60;14.98;;;19.10;99.90;;;;;;5029198;28;20594;-67
2021/09/11 05:59:10;;;;;;;15.95;14.18;;;19.10;99.90;;;;;;5005198;28;20500;-67
2021/09/11 06:01:39;;;;;;;18.55;14.43;;;19.10;99.90;;;;;;5021847;28;20354;-67
2021/09/11 06:04:08;;;;;;;17.40;14.85;;;19.10;99.90;;;;;;5028467;28;20107;-67
2021/09/11 06:06:36;;;;;;;16.90;13.98;;;19.10;99.90;;;;;;5012181;28;20041;-67
2021/09/11 06:09:04;;;;;;;18.35;14.77;;;19.10;99.90;;;;;;5025107;28;20053;-67
2021/09/11 06:11:31;;;;;;;16.10;13.32;;;19.10;99.90;;;;;;5037383;28;20057;-67
2021/09/11 06:13:58;;;;;;;15.75;12.98;;;19.20;99.90;;;;;;5027767;28;20037;-67
2021/09/11 06:16:25;;;;;;;17.88;14.57;;;19.30;99.90;;;;;;5029227;28;20103;-68
2021/09/11 06:18:53;;;;;;;20.80;16.35;;;19.30;99.90;;;;;;5028888;28;20073;-67
2021/09/11 06:21:21;;;;;;;20.38;17.35;;;19.30;99.90;;;;;;5029145;28;20045;-67
2021/09/11 06:23:48;;;;;;;22.33;17.27;;;19.40;99.90;;;;;;5015714;28;20072;-67
2021/09/11 06:26:15;;;;;;;18.38;14.70;;;19.40;99.90;;;;;;5026195;28;20057;-67
2021/09/11 06:28:43;;;;;;;18.48;16.48;;;19.40;99.90;;;;;;5027010;28;20052;-67
2021/09/11 06:31:10;;;;;;;19.02;16.63;;;19.40;99.90;;;;;;5029253;28;20344;-67
2021/09/11 06:33:37;;;;;;;18.45;15.68;;;19.30;99.90;;;;;;5025751;28;20065;-67
2021/09/11 06:36:10;;;;;;;18.35;15.45;;;19.30;99.90;;;;;;5029499;28;20049;-67
2021/09/11 06:38:37;;;;;;;18.38;14.43;;;19.30;99.90;;;;;;5025780;28;20080;-68
2021/09/11 06:41:05;;;;;;;16.83;14.80;;;19.40;99.90;;;;;;5027486;28;20052;-67
2021/09/11 06:43:32;;;;;;;16.73;14.27;;;19.40;99.90;;;;;;5027895;28;20170;-67
2021/09/11 06:45:59;;;;;;;17.55;13.77;;;19.50;99.90;;;;;;5029444;28;20045;-67
2021/09/11 06:48:27;;;;;;;17.23;14.23;;;19.50;99.90;;;;;;5026701;28;20511;-67
2021/09/11 06:50:55;;;;;;;17.20;14.43;;;19.40;99.90;;;;;;5027518;28;20061;-67
2021/09/11 06:53:22;;;;;;;16.60;12.65;;;19.50;99.90;;;;;;5020365;28;20165;-67
2021/09/11 06:55:50;;;;;;;19.60;14.75;;;19.60;99.90;;;;;;5028141;28;20304;-67
2021/09/11 06:58:18;;;;;;;17.25;13.70;;;19.70;99.90;;;;;;5025046;28;20406;-67
2021/09/11 07:00:45;;;;;;;21.10;15.13;;;19.80;99.90;;;;;;5027632;28;20376;-68
2021/09/11 07:03:12;;;;;;;19.13;14.60;;;19.90;99.90;;;;;;5021764;28;20045;-67
2021/09/11 07:05:40;;;;;;;17.50;13.40;;;19.90;99.90;;;;;;5024304;28;20053;-68
2021/09/11 07:08:07;;;;;;;15.65;13.30;;;20.00;99.90;;;;;;5026398;28;20049;-67
2021/09/11 07:10:34;;;;;;;19.33;14.13;;;20.10;99.90;;;;;;5033344;28;20053;-67
2021/09/11 07:13:02;;;;;;;15.32;13.00;;;20.30;99.90;;;;;;5026271;28;20073;-67
2021/09/11 07:15:29;;;;;;;17.92;13.05;;;20.20;99.90;;;;;;5021894;28;20116;-67
2021/09/11 07:17:56;;;;;;;16.42;12.55;;;20.30;99.90;;;;;;5027397;28;20038;-68
2021/09/11 07:20:24;;;;;;;15.57;13.63;;;20.40;99.90;;;;;;5028538;28;20050;-67
2021/09/11 07:22:52;;;;;;;16.45;13.20;;;20.50;99.90;;;;;;5028365;28;20041;-68
2021/09/11 07:25:19;;;;;;;16.77;12.60;;;20.50;99.90;;;;;;5009389;28;20042;-69
2021/09/11 07:27:47;;;;;;;16.33;13.50;;;20.50;99.90;;;;;;5027605;28;20186;-68
2021/09/11 07:30:14;;;;;;;15.85;12.65;;;20.50;99.90;;;;;;5023452;28;20056;-68
2021/09/11 07:32:41;;;;;;;15.63;12.68;;;20.60;99.90;;;;;;5036862;28;20459;-67
2021/09/11 07:35:09;;;;;;;14.35;12.57;;;20.70;99.90;;;;;;5027415;28;20041;-69
2021/09/11 07:37:36;;;;;;;15.32;12.25;;;20.80;99.90;;;;;;5026448;28;20041;-69
2021/09/11 07:40:04;;;;;;;14.57;11.32;;;21.00;99.90;;;;;;5021750;28;20525;-68
2021/09/11 07:42:32;;;;;;;13.65;12.05;;;21.00;99.90;;;;;;5020966;28;20132;-68
2021/09/11 07:44:59;;;;;;;14.32;11.43;;;21.20;99.90;;;;;;5027226;28;20500;-68
2021/09/11 07:47:26;;;;;;;15.13;12.20;;;21.10;99.90;;;;;;5023770;28;20152;-68
2021/09/11 07:49:54;;;;;;;13.98;12.20;;;21.00;99.90;;;;;;5024287;28;20492;-68
2021/09/11 07:52:21;;;;;;;15.73;12.23;;;20.90;99.90;;;;;;5017002;28;20044;-68
2021/09/11 07:54:48;;;;;;;14.93;12.30;;;20.80;99.90;;;;;;5026308;28;20128;-68
2021/09/11 07:57:15;;;;;;;16.77;12.63;;;20.90;99.90;;;;;;5026700;28;20420;-68
2021/09/11 07:59:43;;;;;;;14.30;12.20;;;20.90;99.90;;;;;;5026954;28;20124;-68
2021/09/11 08:02:10;;;;;;;12.98;11.57;;;20.80;99.90;;;;;;5028841;28;20061;-68
2021/09/11 08:04:37;;;;;;;13.70;10.98;;;20.90;99.90;;;;;;5030970;28;20056;-68
2021/09/11 08:07:05;;;;;;;14.45;11.45;;;21.00;99.90;;;;;;5024777;28;20042;-68
2021/09/11 08:09:33;;;;;;;15.05;11.63;;;21.00;99.90;;;;;;5031971;28;20471;-68
2021/09/11 08:12:03;;;;;;;16.90;12.07;;;20.90;99.90;;;;;;5029852;28;20055;-68
2021/09/11 08:14:31;;;;;;;14.70;10.88;;;20.90;99.90;;;;;;5032306;28;20461;-68
2021/09/11 08:16:59;;;;;;;15.75;10.68;;;20.90;99.90;;;;;;5029209;28;20044;-68
2021/09/11 08:19:26;;;;;;;13.27;11.27;;;20.90;99.90;;;;;;5028580;28;20045;-69
2021/09/11 08:21:55;;;;;;;12.63;10.98;;;20.90;99.90;;;;;;5021013;28;20164;-68
2021/09/11 08:24:24;;;;;;;13.57;11.35;;;20.90;99.90;;;;;;5027698;28;20535;-68
2021/09/11 08:26:53;;;;;;;13.98;10.65;;;21.00;99.90;;;;;;5030475;28;20084;-68
2021/09/11 08:29:21;;;;;;;12.73;10.10;;;20.90;99.90;;;;;;5032420;28;20091;-68
2021/09/11 08:31:49;;;;;;;11.27;9.60;;;20.90;99.90;;;;;;5031165;28;20049;-68
2021/09/11 08:34:18;;;;;;;12.65;9.63;;;21.00;99.90;;;;;;5028732;28;20052;-68
2021/09/11 08:36:45;;;;;;;11.20;9.88;;;21.20;99.90;;;;;;5029316;28;20056;-68
2021/09/11 08:39:26;;;;;;;11.07;9.20;;;21.30;99.90;;;;;;5022128;28;20045;-68
2021/09/11 08:41:55;;;;;;;11.95;10.00;;;21.30;99.90;;;;;;5028770;28;20056;-67
2021/09/11 08:44:25;;;;;;;11.73;9.32;;;21.40;99.90;;;;;;5026699;28;20408;-67
2021/09/11 08:46:53;;;;;;;10.70;9.07;;;21.30;99.90;;;;;;5031096;28;20064;-67
2021/09/11 08:49:22;;;;;;;14.00;10.30;;;21.50;99.90;;;;;;5030951;28;20046;-67
2021/09/11 08:51:50;;;;;;;12.20;9.02;;;21.60;99.90;;;;;;5030218;28;20045;-68
2021/09/11 08:54:21;;;;;;;11.25;8.38;;;22.00;99.90;;;;;;5030382;28;20046;-68
2021/09/11 08:56:50;;;;;;;12.20;8.88;;;22.20;99.90;;;;;;5017078;28;20128;-68
2021/09/11 08:59:19;;;;;;;10.90;9.18;;;22.10;99.90;;;;;;5030843;28;20041;-68
2021/09/11 09:02:08;;;;;;;12.73;9.25;;;22.00;99.90;;;;;;5030640;28;20589;-67
2021/09/11 09:04:43;;;;;;;10.52;8.82;;;21.90;99.90;;;;;;5027746;28;20041;-67
2021/09/11 09:07:11;;;;;;;12.50;8.77;;;21.80;99.90;;;;;;5043704;28;20049;-67
2021/09/11 09:09:40;;;;;;;12.45;9.40;;;21.90;99.90;;;;;;5033550;28;20041;-67
2021/09/11 09:12:14;;;;;;;11.18;8.25;;;22.00;99.90;;;;;;5033927;28;20053;-67
2021/09/11 09:15:07;;;;;;;10.75;8.80;;;22.00;99.90;;;;;;5030560;28;20444;-67
2021/09/11 09:17:38;;;;;;;;;;;22.30;99.90;;;;;;5017909;28;20161;-68
2021/09/11 09:20:21;;;;;;;11.52;9.18;;;22.40;99.90;;;;;;5029547;28;19925;-71
2021/09/11 09:23:12;;;;;;;11.55;9.30;;;22.30;99.90;;;;;;5028759;28;20088;-67
2021/09/11 09:25:40;;;;;;;12.48;9.50;;;22.20;99.90;;;;;;5010055;28;20404;-67
2021/09/11 09:28:15;;;;;;;13.32;9.00;;;22.30;99.90;;;;;;5030228;28;20128;-67
2021/09/11 09:30:49;;;;;;;13.05;8.63;;;22.20;99.90;;;;;;5029070;28;20046;-68
2021/09/11 09:33:22;;;;;;;10.43;9.00;;;22.30;99.90;;;;;;5020295;28;20042;-68
2021/09/11 09:35:50;;;;;;;11.73;8.65;;;22.60;99.90;;;;;;5003830;28;20045;-67
2021/09/11 09:38:18;;;;;;;10.32;9.10;;;22.50;99.90;;;;;;5029107;28;20130;-68
2021/09/11 09:40:46;;;;;;;13.20;9.20;;;22.50;99.90;;;;;;5029089;28;20419;-68
2021/09/11 09:43:40;;;;;;;9.77;7.32;;;22.50;99.90;;;;;;5029701;28;20408;-67
2021/09/11 09:46:11;;;;;;;12.45;8.07;;;22.70;99.90;;;;;;5027796;28;20152;-67
2021/09/11 09:48:40;;;;;;;9.23;6.90;;;22.70;99.90;;;;;;5030360;28;20471;-67
2021/09/11 09:51:14;;;;;;;8.52;6.80;;;22.80;99.90;;;;;;5030344;28;20468;-67
2021/09/11 09:53:45;;;;;;;8.38;6.90;;;23.10;99.90;;;;;;5028496;28;20049;-67
2021/09/11 09:56:13;;;;;;;8.38;6.88;;;23.20;99.90;;;;;;5028358;28;20049;-67
2021/09/11 09:58:40;;;;;;;10.52;7.38;;;23.30;99.90;;;;;;5028303;28;20061;-67
2021/09/11 10:01:08;;;;;;;10.75;7.53;;;23.20;99.90;;;;;;5017782;28;20060;-67
2021/09/11 10:03:35;;;;;;;10.30;8.50;;;23.10;99.90;;;;;;5023272;28;20049;-67
2021/09/11 10:06:13;;;;;;;10.38;7.30;;;23.20;99.90;;;;;;5025958;28;20504;-67
2021/09/11 10:08:54;;;;;;;9.38;7.97;;;23.30;99.90;;;;;;5026950;28;20056;-67
2021/09/11 10:11:36;;;;;;;10.40;7.27;;;23.40;99.90;;;;;;5027795;28;20089;-67
2021/09/11 10:14:14;;;;;;;8.55;6.85;;;23.90;99.90;;;;;;5022854;28;20088;-67
2021/09/11 10:16:55;;;;;;;8.98;7.03;;;24.20;99.90;;;;;;5028291;28;20037;-67
2021/09/11 10:19:24;;;;;;;21.20;12.80;;;24.20;99.90;;;;;;5017166;28;20050;-67
2021/09/11 10:22:19;;;;;;;9.65;6.63;;;24.30;99.90;;;;;;5020885;28;20560;-68
2021/09/11 10:24:58;;;;;;;11.00;7.38;;;24.50;99.90;;;;;;5017179;28;20054;-67
2021/09/11 10:27:36;;;;;;;9.73;7.80;;;24.50;99.90;;;;;;5028738;28;20042;-67
2021/09/11 10:30:21;;;;;;;14.32;7.35;;;24.30;99.90;;;;;;5033594;28;20447;-67
2021/09/11 10:32:49;;;;;;;7.53;6.13;;;24.30;99.90;;;;;;5032854;28;20119;-67
2021/09/11 10:35:20;;;;;;;7.47;5.75;;;24.10;99.90;;;;;;5027161;28;20037;-67
2021/09/11 10:37:53;;;;;;;6.93;5.85;;;23.80;99.90;;;;;;5032551;28;20325;-67
2021/09/11 10:40:32;;;;;;;9.25;6.40;;;23.60;99.90;;;;;;5036452;28;20047;-67
2021/09/11 10:43:09;;;;;;;8.50;6.70;;;23.30;99.90;;;;;;5035113;28;20099;-67
2021/09/11 10:45:54;;;;;;;9.13;7.25;;;23.10;99.90;;;;;;5027125;28;20045;-68
2021/09/11 10:48:34;;;;;;;9.07;7.30;;;23.20;99.90;;;;;;5033104;28;20080;-68
2021/09/11 10:51:24;;;;;;;12.65;8.10;;;23.00;99.90;;;;;;5028591;28;20052;-68
2021/09/11 10:54:03;;;;;;;10.98;8.52;;;22.90;99.90;;;;;;5010901;28;20049;-68
2021/09/11 10:56:40;;;;;;;11.02;8.82;;;22.80;99.90;;;;;;5022059;28;20046;-67
2021/09/11 11:02:23;;;;;;;9.88;8.38;;;22.30;99.90;;;;;;5027214;28;20041;-68
2021/09/11 11:04:54;;;;;;;11.02;7.93;;;22.10;99.90;;;;;;5028406;28;20045;-67
2021/09/11 11:07:31;;;;;;;8.05;7.05;;;22.20;99.90;;;;;;5012491;28;20055;-68
2021/09/11 11:10:07;;;;;;;9.82;7.55;;;22.30;99.90;;;;;;5036486;28;20136;-68
2021/09/11 11:12:41;;;;;;;9.20;8.20;;;22.20;99.90;;;;;;5029264;28;20050;-67
2021/09/11 11:15:17;;;;;;;9.70;8.18;;;22.20;99.90;;;;;;5029344;28;20045;-67
2021/09/11 11:17:47;;;;;;;9.32;7.72;;;22.10;99.90;;;;;;5033427;28;20048;-68
2021/09/11 11:20:28;;;;;;;10.23;7.78;;;22.10;99.90;;;;;;5033277;28;20613;-68
2021/09/11 11:22:58;;;;;;;10.60;8.25;;;22.30;99.90;;;;;;5030038;28;20068;-68
2021/09/11 11:25:36;;;;;;;9.05;7.43;;;22.30;99.90;;;;;;5027612;28;20045;-68
2021/09/11 11:28:11;;;;;;;10.57;7.45;;;22.30;99.90;;;;;;5009710;28;20046;-69
2021/09/11 11:30:41;;;;;;;9.07;6.65;;;22.50;99.90;;;;;;5027559;28;20076;-68
2021/09/11 11:33:08;;;;;;;9.07;7.65;;;22.70;99.90;;;;;;5026969;28;20084;-68
2021/09/11 11:35:41;;;;;;;10.02;7.40;;;22.90;99.90;;;;;;5025358;28;20056;-68
2021/09/11 11:38:08;;;;;;;9.13;7.20;;;23.20;99.90;;;;;;5028806;28;20045;-68
2021/09/11 11:40:36;;;;;;;10.52;8.45;;;23.40;99.90;;;;;;5010464;28;20042;-68
2021/09/11 11:43:05;;;;;;;11.27;8.70;;;23.60;99.90;;;;;;5027842;28;20124;-68
2021/09/11 11:45:34;;;;;;;10.93;7.70;;;24.10;99.90;;;;;;5019279;28;20377;-68
2021/09/11 11:48:14;;;;;;;8.45;6.53;;;24.50;99.90;;;;;;5027532;28;20045;-68
2021/09/11 11:50:43;;;;;;;8.07;6.95;;;24.70;99.90;;;;;;5020515;28;20069;-68
2021/09/11 11:53:14;;;;;;;7.30;6.07;;;24.80;99.90;;;;;;5024674;28;20100;-68
2021/09/11 11:55:52;;;;;;;9.75;7.43;;;25.10;99.90;;;;;;5026672;28;20423;-68
2021/09/11 11:58:24;;;;;;;10.05;7.60;;;25.20;99.90;;;;;;5029030;28;20041;-68
2021/09/11 12:00:57;;;;;;;8.35;6.55;;;25.30;99.90;;;;;;5029068;28;20550;-68
2021/09/11 12:03:35;;;;;;;7.90;6.68;;;25.20;99.90;;;;;;5026118;28;20416;-68
2021/09/11 12:06:05;;;;;;;7.82;6.43;;;25.50;99.90;;;;;;5028239;28;20041;-68
2021/09/11 12:08:37;;;;;;;9.38;6.45;;;25.70;99.90;;;;;;5028182;28;20049;-68
2021/09/11 12:11:05;;;;;;;7.80;6.32;;;25.90;99.90;;;;;;5033449;28;20045;-68
2021/09/11 12:13:33;;;;;;;6.35;5.55;;;26.60;99.90;;;;;;5027716;28;20049;-68
2021/09/11 12:16:01;;;;;;;7.68;6.78;;;27.60;99.90;;;;;;5025878;28;20052;-68
2021/09/11 12:18:34;;;;;;;10.77;7.75;;;27.70;99.90;;;;;;5026656;28;20071;-68
2021/09/11 12:21:13;;;;;;;7.70;5.90;;;27.70;99.90;;;;;;5028314;28;20061;-68
2021/09/11 12:23:47;;;;;;;11.63;5.88;;;27.60;99.90;;;;;;5017698;28;20049;-68
2021/09/11 12:26:14;;;;;;;7.03;5.70;;;27.80;99.90;;;;;;5026069;28;20052;-68
2021/09/11 12:28:44;;;;;;;6.38;5.18;;;27.00;99.90;;;;;;5024295;28;20045;-67
2021/09/11 12:31:22;;;;;;;7.38;6.00;;;27.10;99.90;;;;;;5026119;28;20054;-67
2021/09/11 12:33:58;;;;;;;7.70;5.90;;;27.20;99.90;;;;;;5027369;28;20052;-68
2021/09/11 12:36:39;;;;;;;6.90;5.50;;;27.00;99.90;;;;;;5026717;28;20381;-68
2021/09/11 12:39:07;;;;;;;7.22;5.63;;;26.50;99.90;;;;;;5026780;28;20042;-68
2021/09/11 12:41:37;;;;;;;6.90;5.03;;;26.20;99.90;;;;;;5029037;28;20133;-67
2021/09/11 12:44:05;;;;;;;6.97;5.30;;;26.00;99.90;;;;;;5030675;28;20052;-67
2021/09/11 12:46:35;;;;;;;6.97;4.72;;;26.20;99.90;;;;;;5030636;28;20060;-68
2021/09/11 12:49:05;;;;;;;6.40;4.47;;;26.80;99.90;;;;;;5031468;28;20129;-68